Time;durP1;ratioP1;P1;durP2;ratioP2;P2;SDS_P1;SDS_P2;PMS_P1;PMS_P2;Temp;Humidity;BMP_temperature;BMP_pressure;BME280_temperature;BME280_humidity;BME280_pressure;Samples;Min_cycle;Max_cycle;Signal;HPM_P1;HPM_P2
2023/04/02 00:01:11;;;;;;;10.25;2.03;;;4.10;99.90;;;;;;5011872;28;20517;-80
2023/04/02 00:03:58;;;;;;;6.65;2.63;;;4.00;99.90;;;;;;5008662;28;20050;-83
2023/04/02 00:06:44;;;;;;;11.60;2.40;;;3.90;99.90;;;;;;4996015;28;20054;-84
2023/04/02 00:09:35;;;;;;;8.50;2.15;;;3.90;99.90;;;;;;4993701;28;20073;-85
2023/04/02 00:12:21;;;;;;;10.07;3.10;;;3.90;99.90;;;;;;4992158;28;20092;-82
2023/04/02 00:15:11;;;;;;;16.02;2.75;;;3.90;99.90;;;;;;5010154;28;20049;-81
2023/04/02 00:17:58;;;;;;;5.95;1.70;;;3.90;99.90;;;;;;5010707;28;20046;-82
2023/04/02 00:21:21;;;;;;;10.18;3.22;;;3.80;99.90;;;;;;4992347;28;20061;-84
2023/04/02 00:24:16;;;;;;;5.75;1.75;;;3.80;99.90;;;;;;4950201;29;20059;-82
2023/04/02 00:27:02;;;;;;;7.82;2.78;;;3.70;99.90;;;;;;5010623;28;20159;-81
2023/04/02 00:29:54;;;;;;;7.30;1.80;;;3.70;99.90;;;;;;5010545;28;20056;-83
2023/04/02 00:32:41;;;;;;;9.70;3.40;;;3.70;99.90;;;;;;4979820;28;20116;-81
2023/04/02 00:35:29;;;;;;;4.90;1.83;;;3.60;99.90;;;;;;5010281;28;20049;-80
2023/04/02 00:38:30;;;;;;;11.38;3.08;;;3.70;99.90;;;;;;5010727;28;20054;-83
2023/04/02 00:41:23;;;;;;;6.30;1.80;;;3.60;99.90;;;;;;5010336;28;20133;-81
2023/04/02 00:44:12;;;;;;;5.97;2.45;;;3.60;99.90;;;;;;4991700;28;20085;-83
2023/04/02 00:47:06;;;;;;;6.30;2.03;;;3.60;99.90;;;;;;5012656;28;20057;-82
2023/04/02 00:50:14;;;;;;;8.23;2.03;;;3.60;99.90;;;;;;5010904;28;20050;-83
2023/04/02 00:53:08;;;;;;;12.95;2.97;;;3.60;99.90;;;;;;5010409;28;20401;-79
2023/04/02 00:55:57;;;;;;;6.65;1.90;;;3.60;99.90;;;;;;4992638;28;20400;-82
2023/04/02 00:58:44;;;;;;;5.60;1.45;;;3.50;99.90;;;;;;4991980;28;20064;-81
2023/04/02 01:01:41;;;;;;;6.78;1.67;;;3.50;99.90;;;;;;5009860;28;20176;-81
2023/04/02 01:04:36;;;;;;;10.95;3.35;;;3.50;99.90;;;;;;5009869;28;20053;-81
2023/04/02 01:07:57;;;;;;;11.20;1.92;;;3.40;99.90;;;;;;5009882;28;20050;-81
2023/04/02 01:11:00;;;;;;;8.00;1.55;;;3.20;99.90;;;;;;4973465;28;20093;-82
2023/04/02 01:14:14;;;;;;;5.28;2.00;;;3.40;99.90;;;;;;5010071;28;20156;-80
2023/04/02 01:17:14;;;;;;;6.18;1.35;;;3.30;99.90;;;;;;5009559;28;20112;-79
2023/04/02 01:20:37;;;;;;;8.27;2.00;;;3.30;99.90;;;;;;4991469;28;20061;-81
2023/04/02 01:23:36;;;;;;;7.00;1.67;;;3.20;99.90;;;;;;4978264;28;20124;-82
2023/04/02 01:26:53;;;;;;;11.45;2.30;;;3.20;99.90;;;;;;4978792;28;20384;-81
2023/04/02 01:29:45;;;;;;;10.32;1.73;;;3.10;99.90;;;;;;4991607;28;20145;-81
2023/04/02 01:32:32;;;;;;;14.15;1.67;;;3.10;99.90;;;;;;5000033;28;20057;-82
2023/04/02 01:35:20;;;;;;;10.25;1.77;;;3.10;99.90;;;;;;5014922;28;20502;-82
2023/04/02 01:38:20;;;;;;;5.35;1.45;;;3.10;99.90;;;;;;5014742;28;20136;-79
2023/04/02 01:41:34;;;;;;;4.88;1.75;;;3.00;99.90;;;;;;5012728;28;20089;-78
2023/04/02 01:44:36;;;;;;;10.88;1.35;;;3.10;99.90;;;;;;5012470;28;20045;-79
2023/04/02 01:47:26;;;;;;;9.48;1.92;;;3.00;99.90;;;;;;5013128;28;20038;-79
2023/04/02 01:50:18;;;;;;;14.40;2.15;;;3.00;99.90;;;;;;5013219;28;20056;-79
2023/04/02 01:53:10;;;;;;;5.07;1.50;;;3.00;99.90;;;;;;5013245;28;20050;-80
2023/04/02 01:56:00;;;;;;;5.35;1.27;;;3.00;99.90;;;;;;5012232;28;20140;-80
2023/04/02 01:58:48;;;;;;;6.35;1.70;;;3.00;99.90;;;;;;5012785;28;20100;-84
2023/04/02 02:01:47;;;;;;;6.00;1.80;;;2.90;99.90;;;;;;4995044;28;20046;-79
2023/04/02 02:04:34;;;;;;;6.75;1.48;;;2.90;99.90;;;;;;5012734;28;20042;-79
2023/04/02 02:07:20;;;;;;;7.13;1.25;;;2.90;99.90;;;;;;5012566;28;20045;-79
2023/04/02 02:10:13;;;;;;;7.57;1.35;;;2.80;99.90;;;;;;5012700;28;20058;-82
2023/04/02 02:13:00;;;;;;;8.10;2.47;;;2.80;99.90;;;;;;5012327;28;20054;-85
2023/04/02 02:15:46;;;;;;;6.28;1.48;;;2.80;99.90;;;;;;5011962;28;20050;-80
2023/04/02 02:18:32;;;;;;;7.13;1.27;;;2.80;99.90;;;;;;4994663;28;20057;-78
2023/04/02 02:22:03;;;;;;;7.40;1.38;;;2.70;99.90;;;;;;5012401;28;20123;-79
2023/04/02 02:24:49;;;;;;;6.43;1.27;;;2.70;99.90;;;;;;4987042;28;20057;-79
2023/04/02 02:27:51;;;;;;;4.60;1.15;;;2.70;99.90;;;;;;5012071;28;20053;-80
2023/04/02 02:30:42;;;;;;;9.50;1.40;;;2.70;99.90;;;;;;5011084;28;20111;-79
2023/04/02 02:33:48;;;;;;;6.60;1.15;;;2.70;99.90;;;;;;5012094;28;20140;-83
2023/04/02 02:36:45;;;;;;;3.93;1.10;;;2.70;99.90;;;;;;5012915;28;20049;-79
2023/04/02 02:39:56;;;;;;;9.80;1.63;;;2.70;99.90;;;;;;4994325;28;20058;-79
2023/04/02 02:42:48;;;;;;;4.80;1.60;;;2.60;99.90;;;;;;4993710;28;20057;-79
2023/04/02 02:45:37;;;;;;;5.80;1.30;;;2.70;99.90;;;;;;5012065;28;20461;-80
2023/04/02 02:48:33;;;;;;;6.68;1.55;;;2.60;99.90;;;;;;4994290;28;20544;-79
2023/04/02 02:51:43;;;;;;;7.07;1.55;;;2.60;99.90;;;;;;4994468;28;20524;-80
2023/04/02 02:54:31;;;;;;;4.60;1.52;;;2.60;99.90;;;;;;5011830;28;20042;-81
2023/04/02 02:57:30;;;;;;;8.18;1.45;;;2.60;99.90;;;;;;5011063;28;20129;-80
2023/04/02 03:00:18;;;;;;;7.78;1.77;;;2.60;99.90;;;;;;5011705;28;20046;-81
2023/04/02 03:03:11;;;;;;;9.50;1.40;;;2.60;99.90;;;;;;5011605;28;20381;-82
2023/04/02 03:06:04;;;;;;;3.90;1.40;;;2.50;99.90;;;;;;4993421;28;20120;-83
2023/04/02 03:09:08;;;;;;;7.90;1.70;;;2.50;99.90;;;;;;4997185;28;20085;-83
2023/04/02 03:12:05;;;;;;;10.35;1.35;;;2.50;99.90;;;;;;5011160;28;20046;-81
2023/04/02 03:15:17;;;;;;;9.43;1.65;;;2.50;99.90;;;;;;4994301;28;20061;-81
2023/04/02 03:18:21;;;;;;;7.25;1.75;;;2.50;99.90;;;;;;4992847;28;20057;-81
2023/04/02 03:21:31;;;;;;;12.68;2.97;;;2.50;99.90;;;;;;4979425;28;20504;-82
2023/04/02 03:24:44;;;;;;;8.55;1.80;;;2.50;99.90;;;;;;4994096;28;20100;-82
2023/04/02 03:27:38;;;;;;;4.75;1.75;;;2.50;99.90;;;;;;4981649;28;20561;-82
2023/04/02 03:30:45;;;;;;;4.32;1.15;;;2.50;99.90;;;;;;5010694;28;20050;-81
2023/04/02 03:33:37;;;;;;;4.68;1.00;;;2.40;99.90;;;;;;5010783;28;20137;-83
2023/04/02 03:36:27;;;;;;;9.25;1.52;;;2.40;99.90;;;;;;4997291;28;20046;-82
2023/04/02 03:40:03;;;;;;;7.00;1.40;;;2.40;99.90;;;;;;4997100;28;20505;-81
2023/04/02 03:43:20;;;;;;;4.80;1.10;;;2.40;99.90;;;;;;4950963;29;20059;-82
2023/04/02 03:46:23;;;;;;;7.45;2.55;;;2.40;99.90;;;;;;4950183;29;20047;-80
2023/04/02 03:49:23;;;;;;;4.97;1.20;;;2.40;99.90;;;;;;5010040;28;20062;-82
2023/04/02 03:52:12;;;;;;;5.55;1.52;;;2.40;99.90;;;;;;4993773;28;20050;-84
2023/04/02 03:55:01;;;;;;;5.15;1.27;;;2.40;99.90;;;;;;5010725;28;20058;-81
2023/04/02 03:57:58;;;;;;;7.35;1.35;;;2.30;99.90;;;;;;5010370;28;20141;-82
2023/04/02 04:01:01;;;;;;;6.13;1.23;;;2.40;99.90;;;;;;5011115;28;20041;-83
2023/04/02 04:03:52;;;;;;;13.50;1.77;;;2.40;99.90;;;;;;4993191;28;20064;-82
2023/04/02 04:06:42;;;;;;;6.30;2.20;;;2.40;99.90;;;;;;4993061;28;20066;-82
2023/04/02 04:09:35;;;;;;;5.72;1.20;;;2.40;99.90;;;;;;5010592;28;20053;-81
2023/04/02 04:12:30;;;;;;;8.40;1.40;;;2.40;99.90;;;;;;4992634;28;20060;-82
2023/04/02 04:15:27;;;;;;;2.63;0.90;;;2.40;99.90;;;;;;5010364;28;20136;-80
2023/04/02 04:18:33;;;;;;;4.78;1.45;;;2.40;99.90;;;;;;5010337;28;20297;-82
2023/04/02 04:21:28;;;;;;;5.53;1.65;;;2.40;99.90;;;;;;5010111;28;20653;-82
2023/04/02 04:24:21;;;;;;;17.50;3.42;;;2.40;99.90;;;;;;5009667;28;20046;-81
2023/04/02 04:27:22;;;;;;;11.43;1.50;;;2.40;99.90;;;;;;5009823;28;20053;-80
2023/04/02 04:30:42;;;;;;;9.50;1.25;;;2.40;99.90;;;;;;5010366;28;20050;-82
2023/04/02 04:33:42;;;;;;;6.70;1.10;;;2.40;99.90;;;;;;5010018;28;20061;-82
2023/04/02 04:36:52;;;;;;;10.60;2.65;;;2.40;99.90;;;;;;5010603;28;20551;-80
2023/04/02 04:39:48;;;;;;;6.55;1.23;;;2.40;99.90;;;;;;4992168;28;20061;-83
2023/04/02 04:42:35;;;;;;;;;;;2.40;99.90;;;;;;4992424;28;20089;-81
2023/04/02 04:45:50;;;;;;;3.92;1.00;;;2.40;99.90;;;;;;5010278;28;20316;-78
2023/04/02 04:48:40;;;;;;;9.55;2.30;;;2.40;99.90;;;;;;4991848;28;20057;-79
2023/04/02 04:51:32;;;;;;;6.28;1.00;;;2.40;99.90;;;;;;4993478;28;20065;-78
2023/04/02 04:54:19;;;;;;;6.03;1.33;;;2.40;99.90;;;;;;5010344;28;20061;-82
2023/04/02 04:57:17;;;;;;;5.40;1.00;;;2.40;99.90;;;;;;5010235;28;20050;-81
2023/04/02 05:00:26;;;;;;;4.65;1.02;;;2.50;99.90;;;;;;5009642;28;20117;-81
2023/04/02 05:03:32;;;;;;;7.85;2.83;;;2.50;99.90;;;;;;4992702;28;20050;-80
2023/04/02 05:06:48;;;;;;;6.68;1.20;;;2.50;99.90;;;;;;5011254;28;20050;-79
2023/04/02 05:09:41;;;;;;;5.68;0.80;;;2.60;99.90;;;;;;4995360;28;20049;-79
2023/04/02 05:12:30;;;;;;;7.07;1.17;;;2.60;99.90;;;;;;5013864;28;20049;-79
2023/04/02 05:15:28;;;;;;;6.55;1.13;;;2.60;99.90;;;;;;5013283;28;20432;-79
2023/04/02 05:18:35;;;;;;;8.60;1.02;;;2.60;99.90;;;;;;5012788;28;20050;-79
2023/04/02 05:21:34;;;;;;;4.10;0.98;;;2.60;99.90;;;;;;5012911;28;20060;-80
2023/04/02 05:24:43;;;;;;;4.00;0.90;;;2.70;99.90;;;;;;5013270;28;20046;-79
2023/04/02 05:27:47;;;;;;;5.38;0.82;;;2.70;99.90;;;;;;5013178;28;20100;-78
2023/04/02 05:31:00;;;;;;;4.28;0.98;;;2.80;99.90;;;;;;5014618;28;20042;-82
2023/04/02 05:33:48;;;;;;;3.95;1.27;;;2.80;99.90;;;;;;5013371;28;20136;-79
2023/04/02 05:36:34;;;;;;;5.25;0.93;;;2.80;99.90;;;;;;5013238;28;20100;-81
2023/04/02 05:39:25;;;;;;;5.35;0.80;;;2.90;99.90;;;;;;5012785;28;20064;-81
2023/04/02 05:42:37;;;;;;;4.13;0.93;;;2.90;99.90;;;;;;5012526;28;20264;-84
2023/04/02 05:45:36;;;;;;;5.32;1.08;;;3.00;99.90;;;;;;5012325;28;20569;-79
2023/04/02 05:48:29;;;;;;;7.07;1.38;;;3.00;99.90;;;;;;5012943;28;20084;-78
2023/04/02 05:51:21;;;;;;;3.38;1.25;;;3.10;99.90;;;;;;5012855;28;20049;-82
2023/04/02 05:54:20;;;;;;;2.90;0.70;;;3.10;99.90;;;;;;5012316;28;20295;-82
2023/04/02 05:57:16;;;;;;;2.67;0.50;;;3.10;99.90;;;;;;5012756;28;20049;-79
2023/04/02 06:00:07;;;;;;;4.72;0.80;;;3.20;99.90;;;;;;5012818;28;20405;-80
2023/04/02 06:03:06;;;;;;;3.45;0.88;;;3.30;99.90;;;;;;4994935;28;20140;-79
2023/04/02 06:05:56;;;;;;;4.82;1.33;;;3.30;99.90;;;;;;5012687;28;20192;-79
2023/04/02 06:08:50;;;;;;;3.50;0.65;;;3.30;99.90;;;;;;5012892;28;20049;-80
2023/04/02 06:11:45;;;;;;;6.80;1.35;;;3.40;99.90;;;;;;4994998;28;20085;-80
2023/04/02 06:14:31;;;;;;;3.90;0.90;;;3.50;99.90;;;;;;5011864;28;20497;-77
2023/04/02 06:17:19;;;;;;;5.82;0.60;;;3.50;99.90;;;;;;5011148;28;20050;-79
2023/04/02 06:20:08;;;;;;;7.00;1.42;;;3.60;99.90;;;;;;5012703;28;20068;-78
2023/04/02 06:23:16;;;;;;;4.00;0.95;;;3.70;99.90;;;;;;4998761;28;20196;-81
2023/04/02 06:26:05;;;;;;;7.57;1.15;;;3.70;99.90;;;;;;4973708;28;20129;-81
2023/04/02 06:29:06;;;;;;;7.20;1.25;;;3.90;99.90;;;;;;5013004;28;20050;-79
2023/04/02 06:31:59;;;;;;;9.15;1.00;;;4.00;99.90;;;;;;5011306;28;20140;-81
2023/04/02 06:34:45;;;;;;;5.68;1.20;;;4.20;99.90;;;;;;4981142;28;20096;-80
2023/04/02 06:37:38;;;;;;;7.28;0.93;;;4.30;99.90;;;;;;5011929;28;20104;-80
2023/04/02 06:40:52;;;;;;;4.93;2.08;;;4.40;99.90;;;;;;5011615;28;20053;-81
2023/04/02 06:43:52;;;;;;;5.25;1.52;;;4.40;99.90;;;;;;5011499;28;20054;-82
2023/04/02 06:46:47;;;;;;;3.92;1.00;;;4.50;99.90;;;;;;4994018;28;20053;-81
2023/04/02 06:49:53;;;;;;;7.17;0.97;;;4.60;99.90;;;;;;5012107;28;20049;-80
2023/04/02 06:52:39;;;;;;;;;;;4.70;99.90;;;;;;4993657;28;20683;-79
2023/04/02 06:55:55;;;;;;;6.15;0.80;;;4.90;99.90;;;;;;4998424;28;19929;-80
2023/04/02 06:58:41;;;;;;;8.88;1.05;;;4.90;99.90;;;;;;5011464;28;20104;-81
2023/04/02 07:01:32;;;;;;;6.93;0.90;;;4.90;99.90;;;;;;5011041;28;20804;-80
2023/04/02 07:04:19;;;;;;;3.83;1.02;;;5.00;99.90;;;;;;5012329;28;20062;-79
2023/04/02 07:07:05;;;;;;;2.88;0.80;;;5.10;99.90;;;;;;4993603;28;20045;-80
2023/04/02 07:09:51;;;;;;;5.22;0.77;;;5.30;99.90;;;;;;5011656;28;20053;-79
2023/04/02 07:12:38;;;;;;;4.07;1.95;;;5.60;99.90;;;;;;4993844;28;20146;-82
2023/04/02 07:15:24;;;;;;;6.60;1.73;;;5.60;99.90;;;;;;5012255;28;20477;-82
2023/04/02 07:18:32;;;;;;;5.85;0.90;;;5.70;99.90;;;;;;4980167;28;20127;-82
2023/04/02 07:21:18;;;;;;;7.00;1.25;;;5.60;99.90;;;;;;4980216;28;20417;-81
2023/04/02 07:24:04;;;;;;;3.97;0.90;;;5.50;99.90;;;;;;5011773;28;20050;-82
2023/04/02 07:26:50;;;;;;;3.65;0.82;;;5.30;99.90;;;;;;5010967;28;20054;-83
2023/04/02 07:29:41;;;;;;;6.95;1.95;;;5.20;99.90;;;;;;5010881;28;20133;-84
2023/04/02 07:32:27;;;;;;;3.47;1.08;;;5.20;99.90;;;;;;5011065;28;20128;-81
2023/04/02 07:35:13;;;;;;;4.80;1.13;;;5.20;99.90;;;;;;5011220;28;20409;-84
2023/04/02 07:38:00;;;;;;;6.15;1.08;;;5.20;99.90;;;;;;5011040;28;20065;-83
2023/04/02 07:40:46;;;;;;;5.38;0.80;;;5.10;99.90;;;;;;5011123;28;20050;-81
2023/04/02 07:43:34;;;;;;;5.55;1.10;;;5.20;99.90;;;;;;5011391;28;20050;-82
2023/04/02 07:46:20;;;;;;;5.28;0.95;;;5.40;99.90;;;;;;5011006;28;20412;-81
2023/04/02 07:49:06;;;;;;;6.22;1.13;;;5.50;99.90;;;;;;4993387;28;20061;-80
2023/04/02 07:51:52;;;;;;;6.30;1.13;;;5.50;99.90;;;;;;4993148;28;20056;-79
2023/04/02 07:54:38;;;;;;;5.03;0.88;;;5.50;99.90;;;;;;5010956;28;20450;-81
2023/04/02 07:57:24;;;;;;;3.60;0.80;;;5.60;99.90;;;;;;5010947;28;20065;-81
2023/04/02 08:00:11;;;;;;;3.58;0.80;;;5.60;99.90;;;;;;5010726;28;20144;-79
2023/04/02 08:02:57;;;;;;;4.15;1.10;;;5.80;99.90;;;;;;5010297;28;20042;-81
2023/04/02 08:05:52;;;;;;;6.25;1.48;;;6.20;99.90;;;;;;5009063;28;20050;-80
2023/04/02 08:08:38;;;;;;;2.55;0.70;;;6.50;99.90;;;;;;5010297;28;20053;-81
2023/04/02 08:11:24;;;;;;;3.70;0.70;;;6.70;99.90;;;;;;4992906;28;20080;-80
2023/04/02 08:14:11;;;;;;;5.85;1.13;;;6.80;99.90;;;;;;5010122;28;20058;-81
2023/04/02 08:16:57;;;;;;;2.00;0.60;;;6.90;99.90;;;;;;5010135;28;20409;-80
2023/04/02 08:19:43;;;;;;;8.55;0.80;;;7.00;99.90;;;;;;4992990;28;20060;-80
2023/04/02 08:22:29;;;;;;;3.42;0.70;;;7.30;99.90;;;;;;5010271;28;20054;-80
2023/04/02 08:25:16;;;;;;;4.85;0.88;;;7.40;99.90;;;;;;5010181;28;20058;-80
2023/04/02 08:28:02;;;;;;;4.18;0.88;;;7.60;99.90;;;;;;4993133;28;20045;-79
2023/04/02 08:30:49;;;;;;;2.97;0.75;;;7.80;99.90;;;;;;5010107;28;20065;-81
2023/04/02 08:33:35;;;;;;;10.70;0.73;;;7.90;99.90;;;;;;5009418;28;20112;-82
2023/04/02 08:36:29;;;;;;;2.95;0.70;;;8.00;99.90;;;;;;4994876;28;20042;-80
2023/04/02 08:39:15;;;;;;;4.63;0.70;;;8.10;99.90;;;;;;5009929;28;20065;-83
2023/04/02 08:42:26;;;;;;;6.40;1.10;;;8.30;99.90;;;;;;5011537;28;20145;-81
2023/04/02 08:45:39;;;;;;;6.13;0.68;;;8.30;99.90;;;;;;5013612;28;20645;-80
2023/04/02 08:48:26;;;;;;;5.38;0.98;;;8.40;99.90;;;;;;4997572;28;20539;-84
2023/04/02 08:51:25;;;;;;;7.47;1.13;;;8.60;99.90;;;;;;5014642;28;20053;-81
2023/04/02 08:54:23;;;;;;;4.15;0.80;;;8.70;99.90;;;;;;5014512;28;20046;-83
2023/04/02 08:57:30;;;;;;;6.47;1.10;;;8.90;99.90;;;;;;5000000;28;20085;-80
2023/04/02 09:00:38;;;;;;;3.17;0.50;;;9.10;99.90;;;;;;5013863;28;20184;-86
2023/04/02 09:03:48;;;;;;;5.15;0.85;;;8.90;99.90;;;;;;5013104;28;20108;-83
2023/04/02 09:06:36;;;;;;;3.58;0.65;;;8.70;99.90;;;;;;5013961;28;20089;-84
2023/04/02 09:09:23;;;;;;;2.38;0.50;;;8.90;99.90;;;;;;5013492;28;20046;-85
2023/04/02 09:12:25;;;;;;;5.90;0.90;;;8.90;99.90;;;;;;5013884;28;20053;-86
2023/04/02 09:15:19;;;;;;;5.90;0.80;;;9.20;99.90;;;;;;5013733;28;20068;-84
2023/04/02 09:18:14;;;;;;;7.78;1.67;;;9.50;99.90;;;;;;5013567;28;20184;-85
2023/04/02 09:21:11;;;;;;;3.07;0.73;;;9.40;99.90;;;;;;5014703;28;20060;-82
2023/04/02 09:23:57;;;;;;;4.45;0.60;;;9.60;99.90;;;;;;5013397;28;20520;-84
2023/04/02 09:26:45;;;;;;;3.88;0.70;;;9.80;99.90;;;;;;4995680;28;20144;-80
2023/04/02 09:29:31;;;;;;;4.20;0.88;;;9.90;99.90;;;;;;5012968;28;20165;-84
2023/04/02 09:32:48;;;;;;;4.85;0.65;;;9.90;99.90;;;;;;5013122;28;20050;-83
2023/04/02 09:35:36;;;;;;;5.90;0.60;;;10.00;99.90;;;;;;4983317;28;20485;-84
2023/04/02 09:38:29;;;;;;;2.78;1.08;;;10.00;99.90;;;;;;5011767;28;20824;-80
2023/04/02 09:41:19;;;;;;;2.85;0.80;;;10.10;99.90;;;;;;5012717;28;20050;-83
2023/04/02 09:44:16;;;;;;;4.18;0.75;;;10.00;99.90;;;;;;4995649;28;20050;-84
2023/04/02 09:47:21;;;;;;;5.93;0.93;;;10.10;99.90;;;;;;5013116;28;20092;-86
2023/04/02 09:50:20;;;;;;;6.18;0.85;;;10.30;99.90;;;;;;5013542;28;20490;-86
2023/04/02 09:53:44;;;;;;;4.60;1.13;;;10.40;99.90;;;;;;5010831;28;20056;-86
2023/04/02 09:56:33;;;;;;;8.35;1.00;;;10.60;99.90;;;;;;4995570;28;20054;-85
2023/04/02 09:59:22;;;;;;;10.60;1.20;;;10.60;99.90;;;;;;5013530;28;20078;-82
2023/04/02 10:02:23;;;;;;;9.27;0.88;;;10.70;99.90;;;;;;4995765;28;20128;-86
2023/04/02 10:05:21;;;;;;;5.65;1.00;;;10.70;99.90;;;;;;5013139;28;20049;-83
2023/04/02 10:08:28;;;;;;;2.80;0.50;;;10.90;99.90;;;;;;4995076;28;20073;-86
2023/04/02 10:11:30;;;;;;;2.95;0.80;;;11.00;99.40;;;;;;4995438;28;20056;-86
2023/04/02 10:14:24;;;;;;;6.55;1.38;;;11.10;99.90;;;;;;5013008;28;20054;-81
2023/04/02 10:17:20;;;;;;;3.88;0.60;;;11.30;99.90;;;;;;5012878;28;20054;-85
2023/04/02 10:20:25;;;;;;;4.57;0.60;;;11.20;99.50;;;;;;4996066;28;20058;-86
2023/04/02 10:23:18;;;;;;;2.00;0.57;;;11.40;99.30;;;;;;5012870;28;20082;-85
2023/04/02 10:26:27;;;;;;;4.50;0.50;;;11.50;99.10;;;;;;4995008;28;20054;-85
2023/04/02 10:29:44;;;;;;;3.35;0.80;;;11.70;98.80;;;;;;5014559;28;20053;-84
2023/04/02 10:32:33;;;;;;;7.75;1.05;;;11.90;99.50;;;;;;5014687;28;20525;-84
2023/04/02 10:35:35;;;;;;;5.80;0.93;;;12.10;99.40;;;;;;5012840;28;20098;-82
2023/04/02 10:38:41;;;;;;;16.67;1.80;;;12.30;98.70;;;;;;5012907;28;20042;-82
2023/04/02 10:41:35;;;;;;;5.28;0.80;;;12.10;98.40;;;;;;4994076;28;20046;-81
2023/04/02 10:44:30;;;;;;;3.40;0.60;;;12.20;97.90;;;;;;5012072;28;20053;-81
2023/04/02 10:47:57;;;;;;;5.82;0.70;;;12.40;98.40;;;;;;5010209;28;20054;-86
2023/04/02 10:50:55;;;;;;;6.32;0.82;;;12.80;99.10;;;;;;4957434;29;20051;-82
2023/04/02 10:53:54;;;;;;;4.50;0.82;;;12.80;97.30;;;;;;5017273;28;20050;-83
2023/04/02 10:56:41;;;;;;;3.30;0.63;;;12.70;97.00;;;;;;5013949;28;20050;-85
2023/04/02 10:59:30;;;;;;;6.30;0.90;;;12.80;97.20;;;;;;5013987;28;20053;-83
2023/04/02 11:03:03;;;;;;;3.55;0.65;;;12.80;97.50;;;;;;5013503;28;20115;-83
2023/04/02 11:05:52;;;;;;;6.10;1.15;;;12.90;96.40;;;;;;4951131;29;20059;-82
2023/04/02 11:08:45;;;;;;;6.53;1.50;;;13.00;97.60;;;;;;4951432;29;20058;-85
2023/04/02 11:11:35;;;;;;;5.60;0.90;;;13.20;96.70;;;;;;5012781;28;20058;-85
2023/04/02 11:14:30;;;;;;;4.82;1.00;;;13.40;97.00;;;;;;5013683;28;20062;-82
2023/04/02 11:17:17;;;;;;;7.05;0.82;;;13.40;95.40;;;;;;5014435;28;20054;-83
2023/04/02 11:20:42;;;;;;;5.32;0.80;;;13.70;96.10;;;;;;4995029;28;20402;-84
2023/04/02 11:23:53;;;;;;;5.28;0.77;;;14.10;95.70;;;;;;5012284;28;20046;-85
2023/04/02 11:26:41;;;;;;;8.65;0.82;;;14.20;96.50;;;;;;4995338;28;20815;-85
2023/04/02 11:29:29;;;;;;;5.60;0.70;;;14.30;95.40;;;;;;5011447;28;20093;-85
2023/04/02 11:32:26;;;;;;;5.45;0.60;;;14.20;94.50;;;;;;5011083;28;20061;-83
2023/04/02 11:35:32;;;;;;;4.38;0.90;;;14.10;93.40;;;;;;4993663;28;20072;-80
2023/04/02 11:38:24;;;;;;;2.05;0.60;;;14.20;93.60;;;;;;4980203;28;20441;-84
2023/04/02 11:41:10;;;;;;;1.95;0.43;;;14.40;94.00;;;;;;5010219;28;20057;-86
2023/04/02 11:44:00;;;;;;;6.05;0.80;;;14.50;94.30;;;;;;4993181;28;20157;-87
2023/04/02 11:46:46;;;;;;;5.70;0.55;;;15.00;93.00;;;;;;4980410;28;20523;-86
2023/04/02 11:49:38;;;;;;;4.03;0.82;;;15.00;92.80;;;;;;4979495;28;20057;-86
2023/04/02 11:52:30;;;;;;;4.30;0.75;;;15.40;92.70;;;;;;5010964;28;20521;-80
2023/04/02 11:55:36;;;;;;;4.15;0.60;;;16.00;92.60;;;;;;5014915;28;20493;-86
2023/04/02 11:58:29;;;;;;;5.45;0.65;;;16.20;91.50;;;;;;5012046;28;20408;-83
2023/04/02 12:01:44;;;;;;;2.25;0.93;;;16.30;89.80;;;;;;5010469;28;20127;-85
2023/04/02 12:04:43;;;;;;;3.28;0.68;;;16.10;88.10;;;;;;5009960;28;20137;-84
2023/04/02 12:07:55;;;;;;;5.68;0.80;;;16.30;86.10;;;;;;5010458;28;20061;-81
2023/04/02 12:10:58;;;;;;;3.92;0.75;;;16.00;85.90;;;;;;5010557;28;20049;-82
2023/04/02 12:13:49;;;;;;;2.45;0.47;;;16.20;84.20;;;;;;5009765;28;20186;-85
2023/04/02 12:16:36;;;;;;;2.65;0.60;;;16.20;83.80;;;;;;5009766;28;20413;-85
2023/04/02 12:19:23;;;;;;;4.00;0.73;;;16.60;86.80;;;;;;5010421;28;20053;-87
2023/04/02 12:22:19;;;;;;;3.53;1.20;;;16.40;83.70;;;;;;5009476;28;20092;-87
2023/04/02 12:25:28;;;;;;;5.65;0.70;;;16.40;82.40;;;;;;4993083;28;20060;-85
2023/04/02 12:28:18;;;;;;;3.83;0.60;;;17.40;83.20;;;;;;5011667;28;20146;-82
2023/04/02 12:31:17;;;;;;;3.63;0.52;;;17.50;79.90;;;;;;5013841;28;20046;-88
2023/04/02 12:34:03;;;;;;;1.85;0.60;;;17.30;76.70;;;;;;5014202;28;20061;-87
2023/04/02 12:36:51;;;;;;;5.05;0.90;;;17.80;77.00;;;;;;5011178;28;20046;-82
2023/04/02 12:39:38;;;;;;;2.78;0.43;;;18.20;74.90;;;;;;5012593;28;20069;-86
2023/04/02 12:42:32;;;;;;;3.28;0.63;;;18.40;73.90;;;;;;5012088;28;20113;-87
2023/04/02 12:45:27;;;;;;;5.00;1.33;;;18.60;71.50;;;;;;5013189;28;20449;-86
2023/04/02 12:48:13;;;;;;;3.25;0.63;;;18.80;69.70;;;;;;4994071;28;20053;-86
2023/04/02 12:51:01;;;;;;;6.13;1.05;;;19.30;68.30;;;;;;5011024;28;20050;-84
2023/04/02 12:53:50;;;;;;;8.65;0.85;;;19.20;68.10;;;;;;5010569;28;20050;-87
2023/04/02 12:56:36;;;;;;;3.03;0.80;;;19.40;66.00;;;;;;4993143;28;20097;-84
2023/04/02 12:59:27;;;;;;;5.35;0.85;;;20.20;64.80;;;;;;4993317;28;20054;-82
2023/04/02 13:02:22;;;;;;;4.18;0.88;;;20.70;61.80;;;;;;5008457;28;20049;-84
2023/04/02 13:05:08;;;;;;;3.40;0.98;;;21.00;59.40;;;;;;5010521;28;20197;-85
2023/04/02 13:07:55;;;;;;;3.65;0.55;;;21.20;58.50;;;;;;5010436;28;20052;-84
2023/04/02 13:10:42;;;;;;;4.78;0.88;;;21.90;56.50;;;;;;5009336;28;20141;-80
2023/04/02 13:13:36;;;;;;;2.13;0.60;;;22.50;55.30;;;;;;4991817;28;20050;-81
2023/04/02 13:16:33;;;;;;;4.03;0.90;;;22.80;51.90;;;;;;4992017;28;20050;-82
2023/04/02 13:19:29;;;;;;;7.07;0.70;;;23.10;51.80;;;;;;5010469;28;20460;-82
2023/04/02 13:22:30;;;;;;;4.88;1.17;;;23.00;49.00;;;;;;5010091;28;20073;-84
2023/04/02 13:25:17;;;;;;;5.63;1.00;;;22.90;48.30;;;;;;5010047;28;20048;-85
2023/04/02 13:28:03;;;;;;;5.57;0.85;;;22.80;49.00;;;;;;4997233;28;20050;-80
2023/04/02 13:30:49;;;;;;;2.28;0.60;;;22.50;49.30;;;;;;5017846;28;20046;-86
2023/04/02 13:33:35;;;;;;;5.88;0.73;;;22.80;48.20;;;;;;5003268;28;20065;-82
2023/04/02 13:36:30;;;;;;;9.95;1.10;;;23.40;47.30;;;;;;5027191;28;20049;-83
2023/04/02 13:39:18;;;;;;;2.80;0.60;;;23.40;47.30;;;;;;5026163;28;20089;-81
2023/04/02 13:42:06;;;;;;;3.88;0.90;;;23.60;47.10;;;;;;5022039;28;20046;-80
2023/04/02 13:44:52;;;;;;;4.70;0.98;;;23.30;47.40;;;;;;5014614;28;20042;-81
2023/04/02 13:47:38;;;;;;;3.35;0.82;;;22.70;48.20;;;;;;5013601;28;20428;-80
2023/04/02 13:50:25;;;;;;;5.22;0.75;;;23.30;48.80;;;;;;5013228;28;20053;-84
2023/04/02 13:53:30;;;;;;;4.65;1.10;;;23.30;47.40;;;;;;4995333;28;20073;-84
2023/04/02 13:56:16;;;;;;;4.22;0.80;;;23.40;47.00;;;;;;5012786;28;20140;-81
2023/04/02 13:59:02;;;;;;;2.80;0.75;;;23.70;46.80;;;;;;5011163;28;20056;-84
2023/04/02 14:01:51;;;;;;;3.80;0.90;;;24.00;46.60;;;;;;4982607;28;20196;-83
2023/04/02 14:04:41;;;;;;;4.03;0.88;;;23.90;45.10;;;;;;5011697;28;20060;-86
2023/04/02 14:07:55;;;;;;;4.35;0.93;;;24.20;45.50;;;;;;5012325;28;20556;-81
2023/04/02 14:11:10;;;;;;;5.20;0.90;;;24.00;44.00;;;;;;5012314;28;20054;-85
2023/04/02 14:14:28;;;;;;;13.03;2.73;;;24.10;44.40;;;;;;5012164;28;20054;-87
2023/04/02 14:17:32;;;;;;;5.15;1.02;;;23.60;44.30;;;;;;4994591;28;20073;-82
2023/04/02 14:20:30;;;;;;;3.38;0.75;;;24.60;45.10;;;;;;5011907;28;20181;-85
2023/04/02 14:23:56;;;;;;;3.63;0.90;;;24.70;42.50;;;;;;5012552;28;20049;-86
2023/04/02 14:27:21;;;;;;;8.73;2.00;;;24.80;41.80;;;;;;5011464;28;20053;-86
2023/04/02 14:30:26;;;;;;;3.55;0.80;;;24.60;41.70;;;;;;4994119;28;20054;-86
2023/04/02 14:33:39;;;;;;;5.18;0.73;;;25.50;43.20;;;;;;5011713;28;20401;-82
2023/04/02 14:36:43;;;;;;;3.97;0.70;;;25.70;41.10;;;;;;4994129;28;20409;-86
2023/04/02 14:39:48;;;;;;;6.13;1.00;;;26.30;42.40;;;;;;5010989;28;20141;-81
2023/04/02 14:42:43;;;;;;;6.53;0.90;;;26.60;41.00;;;;;;5012549;28;20449;-81
2023/04/02 14:45:38;;;;;;;6.47;1.20;;;27.30;39.30;;;;;;5012337;28;20061;-86
2023/04/02 14:48:36;;;;;;;3.88;0.75;;;27.10;39.30;;;;;;5010716;28;20062;-86
2023/04/02 14:51:42;;;;;;;3.42;0.68;;;26.40;38.10;;;;;;4980978;28;20071;-86
2023/04/02 14:54:34;;;;;;;2.88;0.77;;;26.20;38.70;;;;;;5011572;28;20057;-83
2023/04/02 14:57:37;;;;;;;4.55;0.75;;;26.30;38.70;;;;;;4997339;28;20192;-81
2023/04/02 15:00:34;;;;;;;3.03;0.85;;;25.90;36.60;;;;;;5011383;28;20052;-81
2023/04/02 15:03:43;;;;;;;3.97;1.20;;;25.80;38.70;;;;;;5015531;28;20089;-85
2023/04/02 15:06:46;;;;;;;3.90;0.73;;;25.70;38.40;;;;;;5014165;28;20514;-87
2023/04/02 15:09:42;;;;;;;4.28;0.88;;;26.40;38.30;;;;;;4994643;28;20045;-82
2023/04/02 15:12:34;;;;;;;2.22;0.70;;;26.30;38.20;;;;;;5011212;28;20049;-86
2023/04/02 15:15:40;;;;;;;4.72;0.93;;;26.10;38.40;;;;;;5012327;28;20453;-83
2023/04/02 15:18:26;;;;;;;3.92;0.98;;;26.40;39.00;;;;;;5012396;28;20049;-83
2023/04/02 15:21:18;;;;;;;4.20;0.85;;;26.30;38.90;;;;;;4981752;28;20413;-86
2023/04/02 15:24:21;;;;;;;1.77;0.65;;;26.10;37.20;;;;;;4982064;28;20474;-82